createdAt,value
2024-04-07T00:00:05.457Z,479.00
2024-04-07T00:01:05.466Z,479.00
2024-04-07T00:02:05.463Z,478.00
2024-04-07T00:03:05.470Z,477.00
2024-04-07T00:04:05.470Z,478.00
2024-04-07T00:05:05.514Z,480.00
2024-04-07T00:06:05.477Z,480.00
2024-04-07T00:07:05.478Z,480.00
2024-04-07T00:08:05.483Z,479.00
2024-04-07T00:09:05.483Z,480.00
2024-04-07T00:10:05.645Z,481.00
2024-04-07T00:11:05.516Z,483.00
2024-04-07T00:12:05.488Z,484.00
2024-04-07T00:13:05.484Z,485.00
2024-04-07T00:14:05.496Z,485.00
2024-04-07T00:15:05.494Z,483.00
2024-04-07T00:16:05.484Z,483.00
2024-04-07T00:17:05.528Z,487.00
2024-04-07T00:18:05.480Z,487.00
2024-04-07T00:19:05.492Z,485.00
2024-04-07T00:20:05.494Z,484.00
2024-04-07T00:21:05.484Z,481.00
2024-04-07T00:22:05.493Z,481.00
2024-04-07T00:23:05.494Z,482.00
2024-04-07T00:24:05.513Z,483.00
2024-04-07T00:25:05.519Z,483.00
2024-04-07T00:26:05.532Z,484.00
2024-04-07T00:27:05.524Z,485.00
2024-04-07T00:28:05.521Z,484.00
2024-04-07T00:29:05.519Z,482.00
2024-04-07T00:30:05.543Z,482.00
2024-04-07T00:31:05.537Z,480.00
2024-04-07T00:32:06.109Z,483.00
2024-04-07T00:33:05.640Z,482.00
2024-04-07T00:34:05.684Z,484.00
2024-04-07T00:35:05.756Z,484.00
2024-04-07T00:36:05.804Z,485.00
2024-04-07T00:37:05.834Z,481.00
2024-04-07T00:38:05.886Z,480.00
2024-04-07T00:39:05.924Z,480.00
2024-04-07T00:40:05.959Z,479.00
2024-04-07T00:41:06.022Z,480.00
2024-04-07T00:42:06.061Z,479.00
2024-04-07T00:43:06.124Z,478.00
2024-04-07T00:44:06.150Z,478.00
2024-04-07T00:45:06.189Z,479.00
2024-04-07T00:46:06.274Z,478.00
2024-04-07T00:47:06.290Z,476.00
2024-04-07T00:48:06.321Z,478.00
2024-04-07T00:49:06.387Z,479.00
2024-04-07T00:50:06.467Z,477.00
2024-04-07T00:51:06.531Z,477.00
2024-04-07T00:52:06.609Z,478.00
2024-04-07T00:53:06.821Z,480.00
2024-04-07T00:54:06.816Z,482.00
2024-04-07T00:55:06.849Z,484.00
2024-04-07T00:56:06.895Z,484.00
2024-04-07T00:57:06.919Z,485.00
2024-04-07T00:58:09.880Z,482.00
2024-04-07T00:59:07.042Z,484.00
2024-04-07T01:00:07.079Z,485.00
2024-04-07T01:01:07.122Z,483.00
2024-04-07T01:02:07.178Z,485.00
2024-04-07T01:03:07.206Z,483.00
2024-04-07T01:04:07.252Z,487.00
2024-04-07T01:05:07.327Z,489.00
2024-04-07T01:06:07.347Z,492.00
2024-04-07T01:07:07.404Z,491.00
2024-04-07T01:08:07.455Z,491.00
2024-04-07T01:09:07.495Z,491.00
2024-04-07T01:10:07.546Z,493.00
2024-04-07T01:11:07.583Z,489.00
2024-04-07T01:12:07.628Z,489.00
2024-04-07T01:13:07.682Z,488.00
2024-04-07T01:14:07.726Z,488.00
2024-04-07T01:15:07.803Z,490.00
2024-04-07T01:16:07.882Z,489.00
2024-04-07T01:17:07.952Z,490.00
2024-04-07T01:18:08.081Z,491.00
2024-04-07T01:19:08.075Z,490.00
2024-04-07T01:20:08.155Z,492.00
2024-04-07T01:21:08.222Z,494.00
2024-04-07T01:22:08.294Z,495.00
2024-04-07T01:23:08.353Z,492.00
2024-04-07T01:24:08.412Z,489.00
2024-04-07T01:25:08.479Z,487.00
2024-04-07T01:26:08.547Z,485.00
2024-04-07T01:27:08.613Z,483.00
2024-04-07T01:28:08.685Z,483.00
2024-04-07T01:29:08.872Z,484.00
2024-04-07T01:30:08.817Z,485.00
2024-04-07T01:31:08.888Z,486.00
2024-04-07T01:32:08.968Z,489.00
2024-04-07T01:33:09.014Z,491.00
2024-04-07T01:34:09.133Z,488.00
2024-04-07T01:35:09.302Z,487.00
2024-04-07T01:36:09.257Z,487.00
2024-04-07T01:37:09.309Z,487.00
2024-04-07T01:38:09.360Z,492.00
2024-04-07T01:39:09.430Z,491.00
2024-04-07T01:40:09.488Z,490.00
2024-04-07T01:41:09.558Z,486.00
2024-04-07T01:42:09.628Z,485.00
2024-04-07T01:43:09.708Z,484.00
2024-04-07T01:44:09.769Z,486.00
2024-04-07T01:45:09.830Z,487.00
2024-04-07T01:46:09.901Z,487.00
2024-04-07T01:47:09.982Z,487.00
2024-04-07T01:48:10.057Z,488.00
2024-04-07T01:49:10.119Z,485.00
2024-04-07T01:50:10.212Z,487.00
2024-04-07T01:51:10.259Z,487.00
2024-04-07T01:52:10.324Z,489.00
2024-04-07T01:53:10.385Z,489.00
2024-04-07T01:54:10.460Z,491.00
2024-04-07T01:55:10.520Z,491.00
2024-04-07T01:56:10.595Z,492.00
2024-04-07T01:57:10.672Z,493.00
2024-04-07T01:58:10.749Z,494.00
2024-04-07T01:59:10.804Z,493.00
2024-04-07T02:00:10.867Z,493.00
2024-04-07T02:01:10.937Z,491.00
2024-04-07T02:02:11.004Z,488.00
2024-04-07T02:03:11.077Z,489.00
2024-04-07T02:04:11.142Z,488.00
2024-04-07T02:05:11.216Z,489.00
2024-04-07T02:06:11.298Z,489.00
2024-04-07T02:07:11.381Z,491.00
2024-04-07T02:08:11.427Z,489.00
2024-04-07T02:09:11.498Z,489.00
2024-04-07T02:10:11.561Z,490.00
2024-04-07T02:11:11.634Z,491.00
2024-04-07T02:12:11.699Z,489.00
2024-04-07T02:13:11.770Z,488.00
2024-04-07T02:14:11.841Z,487.00
2024-04-07T02:15:11.896Z,486.00
2024-04-07T02:16:11.968Z,487.00
2024-04-07T02:17:12.114Z,487.00
2024-04-07T02:18:12.109Z,486.00
2024-04-07T02:19:12.179Z,486.00
2024-04-07T02:20:12.249Z,487.00
2024-04-07T02:21:12.306Z,487.00
2024-04-07T02:22:12.409Z,486.00
2024-04-07T02:23:12.465Z,487.00
2024-04-07T02:24:12.524Z,490.00
2024-04-07T02:25:12.597Z,488.00
2024-04-07T02:26:12.668Z,489.00
2024-04-07T02:27:12.734Z,489.00
2024-04-07T02:28:12.816Z,489.00
2024-04-07T02:29:12.882Z,486.00
2024-04-07T02:30:12.930Z,486.00
2024-04-07T02:31:13.011Z,487.00
2024-04-07T02:32:13.089Z,489.00
2024-04-07T02:33:13.157Z,487.00
2024-04-07T02:34:13.219Z,486.00
2024-04-07T02:35:13.298Z,483.00
2024-04-07T02:36:13.364Z,482.00
2024-04-07T02:37:13.436Z,483.00
2024-04-07T02:38:13.523Z,485.00
2024-04-07T02:39:13.574Z,486.00
2024-04-07T02:40:13.641Z,485.00
2024-04-07T02:41:13.724Z,484.00
2024-04-07T02:42:13.791Z,484.00
2024-04-07T02:43:13.860Z,485.00
2024-04-07T02:44:13.925Z,487.00
2024-04-07T02:45:13.993Z,485.00
2024-04-07T02:46:14.060Z,486.00
2024-04-07T02:47:14.156Z,485.00
2024-04-07T02:48:14.204Z,487.00
2024-04-07T02:49:14.265Z,486.00
2024-04-07T02:50:14.366Z,486.00
2024-04-07T02:51:14.397Z,483.00
2024-04-07T02:52:14.471Z,486.00
2024-04-07T02:53:14.545Z,487.00
2024-04-07T02:54:14.642Z,486.00
2024-04-07T02:55:14.665Z,488.00
2024-04-07T02:56:14.740Z,486.00
2024-04-07T02:57:14.803Z,487.00
2024-04-07T02:58:14.889Z,487.00
2024-04-07T02:59:14.956Z,484.00
2024-04-07T03:00:15.029Z,487.00
2024-04-07T03:01:15.097Z,486.00
2024-04-07T03:02:15.183Z,488.00
2024-04-07T03:03:15.230Z,486.00
2024-04-07T03:04:15.310Z,486.00
2024-04-07T03:05:15.371Z,488.00
2024-04-07T03:06:15.443Z,488.00
2024-04-07T03:07:15.517Z,487.00
2024-04-07T03:08:15.586Z,487.00
2024-04-07T03:09:15.656Z,486.00
2024-04-07T03:10:15.748Z,485.00
2024-04-07T03:11:15.779Z,485.00
2024-04-07T03:12:15.839Z,485.00
2024-04-07T03:13:15.927Z,485.00
2024-04-07T03:14:15.987Z,487.00
2024-04-07T03:15:16.105Z,488.00
2024-04-07T03:16:16.128Z,489.00
2024-04-07T03:17:16.190Z,489.00
2024-04-07T03:18:16.262Z,489.00
2024-04-07T03:19:16.338Z,490.00
2024-04-07T03:20:16.394Z,487.00
2024-04-07T03:21:16.470Z,488.00
2024-04-07T03:22:16.532Z,491.00
2024-04-07T03:23:16.606Z,491.00
2024-04-07T03:24:16.681Z,490.00
2024-04-07T03:25:16.742Z,491.00
2024-04-07T03:26:16.830Z,492.00
2024-04-07T03:27:16.885Z,488.00
2024-04-07T03:28:16.949Z,491.00
2024-04-07T03:29:17.022Z,491.00
2024-04-07T03:30:17.100Z,491.00
2024-04-07T03:31:17.168Z,492.00
2024-04-07T03:32:17.250Z,494.00
2024-04-07T03:33:17.301Z,493.00
2024-04-07T03:34:17.374Z,488.00
2024-04-07T03:35:17.436Z,486.00
2024-04-07T03:36:17.515Z,487.00
2024-04-07T03:37:17.578Z,488.00
2024-04-07T03:38:17.662Z,491.00
2024-04-07T03:39:17.729Z,491.00
2024-04-07T03:40:17.787Z,488.00
2024-04-07T03:41:17.867Z,488.00
2024-04-07T03:42:17.948Z,489.00
2024-04-07T03:43:18.002Z,488.00
2024-04-07T03:44:18.071Z,490.00
2024-04-07T03:45:18.143Z,489.00
2024-04-07T03:46:18.206Z,488.00
2024-04-07T03:47:18.279Z,489.00
2024-04-07T03:48:18.346Z,488.00
2024-04-07T03:49:18.415Z,489.00
2024-04-07T03:50:18.497Z,490.00
2024-04-07T03:51:18.549Z,492.00
2024-04-07T03:52:18.625Z,494.00
2024-04-07T03:53:18.689Z,492.00
2024-04-07T03:54:18.750Z,491.00
2024-04-07T03:55:18.885Z,493.00
2024-04-07T03:56:18.897Z,492.00
2024-04-07T03:57:18.973Z,490.00
2024-04-07T03:58:19.051Z,488.00
2024-04-07T03:59:19.105Z,488.00
2024-04-07T04:00:19.175Z,487.00
2024-04-07T04:01:19.263Z,483.00
2024-04-07T04:02:19.318Z,480.00
2024-04-07T04:03:19.386Z,480.00
2024-04-07T04:04:19.456Z,479.00
2024-04-07T04:05:19.517Z,479.00
2024-04-07T04:06:19.592Z,477.00
2024-04-07T04:07:19.672Z,482.00
2024-04-07T04:08:19.732Z,480.00
2024-04-07T04:09:19.805Z,480.00
2024-04-07T04:10:19.871Z,479.00
2024-04-07T04:11:19.939Z,480.00
2024-04-07T04:12:20.017Z,479.00
2024-04-07T04:13:20.067Z,481.00
2024-04-07T04:14:20.160Z,481.00
2024-04-07T04:15:20.220Z,479.00
2024-04-07T04:16:20.282Z,479.00
2024-04-07T04:17:20.346Z,478.00
2024-04-07T04:18:20.473Z,480.00
2024-04-07T04:19:20.472Z,480.00
2024-04-07T04:20:20.554Z,481.00
2024-04-07T04:21:20.622Z,482.00
2024-04-07T04:22:20.739Z,484.00
2024-04-07T04:23:20.787Z,487.00
2024-04-07T04:24:20.850Z,484.00
2024-04-07T04:25:20.914Z,484.00
2024-04-07T04:26:20.987Z,486.00
2024-04-07T04:27:21.051Z,483.00
2024-04-07T04:28:21.107Z,483.00
2024-04-07T04:29:21.176Z,486.00
2024-04-07T04:30:21.272Z,486.00
2024-04-07T04:31:21.326Z,485.00
2024-04-07T04:32:21.414Z,484.00
2024-04-07T04:33:21.482Z,483.00
2024-04-07T04:34:21.527Z,482.00
2024-04-07T04:35:21.620Z,480.00
2024-04-07T04:36:21.662Z,479.00
2024-04-07T04:37:21.738Z,480.00
2024-04-07T04:38:21.806Z,481.00
2024-04-07T04:39:21.878Z,479.00
2024-04-07T04:40:21.950Z,479.00
2024-04-07T04:41:22.012Z,477.00
2024-04-07T04:42:22.090Z,478.00
2024-04-07T04:43:22.156Z,482.00
2024-04-07T04:44:22.224Z,479.00
2024-04-07T04:45:22.296Z,476.00
2024-04-07T04:46:29.521Z,501.00
2024-04-07T04:47:30.515Z,493.00
2024-04-07T04:48:30.505Z,494.00
2024-04-07T04:49:30.503Z,496.00
2024-04-07T04:50:30.539Z,496.00
2024-04-07T04:51:30.499Z,498.00
2024-04-07T04:52:30.560Z,499.00
2024-04-07T04:53:30.516Z,496.00
2024-04-07T04:54:30.508Z,497.00
2024-04-07T04:55:30.514Z,496.00
2024-04-07T04:56:30.510Z,493.00
2024-04-07T04:57:30.549Z,491.00
2024-04-07T04:58:30.563Z,491.00
2024-04-07T04:59:30.562Z,493.00
2024-04-07T05:00:30.556Z,495.00
2024-04-07T05:01:30.569Z,495.00
2024-04-07T05:02:30.592Z,493.00
2024-04-07T05:03:30.631Z,494.00
2024-04-07T05:04:30.663Z,496.00
2024-04-07T05:05:30.725Z,495.00
2024-04-07T05:06:30.787Z,493.00
2024-04-07T05:07:30.848Z,492.00
2024-04-07T05:08:30.906Z,490.00
2024-04-07T05:09:30.967Z,490.00
2024-04-07T05:10:31.025Z,488.00
2024-04-07T05:11:31.099Z,489.00
2024-04-07T05:12:31.157Z,489.00
2024-04-07T05:13:31.199Z,488.00
2024-04-07T05:14:31.251Z,487.00
2024-04-07T05:15:31.306Z,487.00
2024-04-07T05:16:31.371Z,488.00
2024-04-07T05:17:31.468Z,491.00
2024-04-07T05:18:31.517Z,488.00
2024-04-07T05:19:31.566Z,488.00
2024-04-07T05:20:31.630Z,487.00
2024-04-07T05:21:31.699Z,486.00
2024-04-07T05:22:31.771Z,486.00
2024-04-07T05:23:31.826Z,485.00
2024-04-07T05:24:31.891Z,485.00
2024-04-07T05:25:31.953Z,487.00
2024-04-07T05:26:32.030Z,490.00
2024-04-07T05:27:32.101Z,490.00
2024-04-07T05:28:32.165Z,490.00
2024-04-07T05:29:32.232Z,491.00
2024-04-07T05:30:32.309Z,488.00
2024-04-07T05:31:32.381Z,488.00
2024-04-07T05:32:32.451Z,488.00
2024-04-07T05:33:32.522Z,489.00
2024-04-07T05:34:32.594Z,489.00
2024-04-07T05:35:32.653Z,488.00
2024-04-07T05:36:32.791Z,488.00
2024-04-07T05:37:32.799Z,486.00
2024-04-07T05:38:32.876Z,489.00
2024-04-07T05:39:32.941Z,489.00
2024-04-07T05:40:33.626Z,488.00
2024-04-07T05:41:33.070Z,486.00
2024-04-07T05:42:33.140Z,488.00
2024-04-07T05:43:33.190Z,489.00
2024-04-07T05:44:33.274Z,489.00
2024-04-07T05:45:33.308Z,488.00
2024-04-07T05:46:33.364Z,491.00
2024-04-07T05:47:33.440Z,493.00
2024-04-07T05:48:33.484Z,495.00
2024-04-07T05:49:33.552Z,495.00
2024-04-07T05:50:33.614Z,494.00
2024-04-07T05:51:33.667Z,494.00
2024-04-07T05:52:33.722Z,493.00
2024-04-07T05:53:33.781Z,494.00
2024-04-07T05:54:33.840Z,495.00
2024-04-07T05:55:33.899Z,492.00
2024-04-07T05:56:33.959Z,491.00
2024-04-07T05:57:34.015Z,490.00
2024-04-07T05:58:34.643Z,489.00
2024-04-07T05:59:34.143Z,488.00
2024-04-07T06:00:34.180Z,489.00
2024-04-07T06:01:34.233Z,491.00
2024-04-07T06:02:34.315Z,492.00
2024-04-07T06:03:34.363Z,493.00
2024-04-07T06:04:34.422Z,493.00
2024-04-07T06:05:34.488Z,495.00
2024-04-07T06:06:34.554Z,497.00
2024-04-07T06:07:34.603Z,496.00
2024-04-07T06:08:34.668Z,496.00
2024-04-07T06:09:34.728Z,492.00
2024-04-07T06:10:34.800Z,490.00
2024-04-07T06:11:34.846Z,488.00
2024-04-07T06:12:34.917Z,488.00
2024-04-07T06:13:34.970Z,490.00
2024-04-07T06:14:35.024Z,491.00
2024-04-07T06:15:35.085Z,489.00
2024-04-07T06:16:35.151Z,489.00
2024-04-07T06:17:35.230Z,487.00
2024-04-07T06:18:35.264Z,485.00
2024-04-07T06:19:35.327Z,486.00
2024-04-07T06:20:35.386Z,485.00
2024-04-07T06:21:35.446Z,485.00
2024-04-07T06:22:35.524Z,484.00
2024-04-07T06:23:35.561Z,485.00
2024-04-07T06:24:35.630Z,486.00
2024-04-07T06:25:35.702Z,485.00
2024-04-07T06:26:35.740Z,484.00
2024-04-07T06:27:35.807Z,486.00
2024-04-07T06:28:35.864Z,485.00
2024-04-07T06:29:35.917Z,483.00
2024-04-07T06:30:35.979Z,485.00
2024-04-07T06:31:36.028Z,485.00
2024-04-07T06:32:36.091Z,483.00
2024-04-07T06:33:36.150Z,484.00
2024-04-07T06:34:36.198Z,484.00
2024-04-07T06:35:36.255Z,485.00
2024-04-07T06:36:37.181Z,485.00
2024-04-07T06:37:36.375Z,486.00
2024-04-07T06:38:36.454Z,486.00
2024-04-07T06:39:36.492Z,488.00
2024-04-07T06:40:36.559Z,488.00
2024-04-07T06:41:36.583Z,488.00
2024-04-07T06:42:36.636Z,490.00
2024-04-07T06:43:36.703Z,492.00
2024-04-07T06:44:36.754Z,492.00
2024-04-07T06:45:36.772Z,491.00
2024-04-07T06:46:36.810Z,490.00
2024-04-07T06:47:36.853Z,489.00
2024-04-07T06:48:36.879Z,488.00
2024-04-07T06:49:36.908Z,490.00
2024-04-07T06:50:36.978Z,491.00
2024-04-07T06:51:37.655Z,490.00
2024-04-07T06:52:37.092Z,490.00
2024-04-07T06:53:37.118Z,492.00
2024-04-07T06:54:37.163Z,492.00
2024-04-07T06:55:37.196Z,489.00
2024-04-07T06:56:37.184Z,489.00
2024-04-07T06:57:37.210Z,492.00
2024-04-07T06:58:37.276Z,492.00
2024-04-07T06:59:37.337Z,491.00
2024-04-07T07:00:37.426Z,491.00
2024-04-07T07:01:37.523Z,490.00
2024-04-07T07:02:37.620Z,488.00
2024-04-07T07:03:37.715Z,488.00
2024-04-07T07:04:37.823Z,488.00
2024-04-07T07:05:37.922Z,490.00
2024-04-07T07:06:38.030Z,490.00
2024-04-07T07:07:38.115Z,488.00
2024-04-07T07:08:38.207Z,486.00
2024-04-07T07:09:38.304Z,489.00
2024-04-07T07:10:38.418Z,491.00
2024-04-07T07:11:38.510Z,493.00
2024-04-07T07:12:38.610Z,493.00
2024-04-07T07:13:38.708Z,491.00
2024-04-07T07:14:38.832Z,493.00
2024-04-07T07:15:38.951Z,494.00
2024-04-07T07:16:40.209Z,496.00
2024-04-07T07:17:39.098Z,491.00
2024-04-07T07:18:39.125Z,490.00
2024-04-07T07:19:39.171Z,484.00
2024-04-07T07:20:39.210Z,478.00
2024-04-07T07:21:39.263Z,475.00
2024-04-07T07:22:39.319Z,474.00
2024-04-07T07:23:39.540Z,480.00
2024-04-07T07:24:39.420Z,481.00
2024-04-07T07:25:39.484Z,485.00
2024-04-07T07:26:42.653Z,487.00
2024-04-07T07:27:39.554Z,487.00
2024-04-07T07:28:39.547Z,485.00
2024-04-07T07:29:39.551Z,484.00
2024-04-07T07:30:39.571Z,482.00
2024-04-07T07:31:39.568Z,480.00
2024-04-07T07:32:39.561Z,477.00
2024-04-07T07:33:39.566Z,477.00
2024-04-07T07:34:39.554Z,474.00
2024-04-07T07:35:39.558Z,472.00
2024-04-07T07:36:39.559Z,473.00
2024-04-07T07:37:39.577Z,474.00
2024-04-07T07:38:39.581Z,475.00
2024-04-07T07:39:39.596Z,474.00
2024-04-07T07:40:39.566Z,476.00
2024-04-07T07:41:39.590Z,478.00
2024-04-07T07:42:39.686Z,478.00
2024-04-07T07:43:39.580Z,477.00
2024-04-07T07:44:39.588Z,480.00
2024-04-07T07:45:39.596Z,480.00
2024-04-07T07:46:39.580Z,479.00
2024-04-07T07:47:39.580Z,478.00
2024-04-07T07:48:39.592Z,478.00
2024-04-07T07:49:39.614Z,479.00
2024-04-07T07:50:41.054Z,477.00
2024-04-07T07:51:39.837Z,477.00
2024-04-07T07:52:39.887Z,478.00
2024-04-07T07:53:39.919Z,478.00
2024-04-07T07:54:40.057Z,478.00
2024-04-07T07:55:40.049Z,479.00
2024-04-07T07:56:40.035Z,481.00
2024-04-07T07:57:40.076Z,482.00
2024-04-07T07:58:40.222Z,480.00
2024-04-07T07:59:40.148Z,479.00
2024-04-07T08:00:40.183Z,482.00
2024-04-07T08:01:41.186Z,484.00
2024-04-07T08:02:40.279Z,484.00
2024-04-07T08:03:40.325Z,484.00
2024-04-07T08:04:40.361Z,484.00
2024-04-07T08:05:40.408Z,484.00
2024-04-07T08:06:43.031Z,485.00
2024-04-07T08:07:40.443Z,485.00
2024-04-07T08:08:40.446Z,484.00
2024-04-07T08:09:40.489Z,485.00
2024-04-07T08:10:40.498Z,484.00
2024-04-07T08:11:40.505Z,484.00
2024-04-07T08:12:40.498Z,486.00
2024-04-07T08:13:40.511Z,485.00
2024-04-07T08:14:40.579Z,484.00
2024-04-07T08:15:40.600Z,485.00
2024-04-07T08:16:40.650Z,486.00
2024-04-07T08:17:40.701Z,487.00
2024-04-07T08:18:40.738Z,488.00
2024-04-07T08:19:40.775Z,489.00
2024-04-07T08:20:40.832Z,486.00
2024-04-07T08:21:40.904Z,486.00
2024-04-07T08:22:41.015Z,487.00
2024-04-07T08:23:41.044Z,488.00
2024-04-07T08:24:41.108Z,487.00
2024-04-07T08:25:41.198Z,486.00
2024-04-07T08:26:41.302Z,485.00
2024-04-07T08:27:41.350Z,485.00
2024-04-07T08:28:41.445Z,484.00
2024-04-07T08:29:41.487Z,484.00
2024-04-07T08:30:41.594Z,483.00
2024-04-07T08:31:41.645Z,483.00
2024-04-07T08:32:41.720Z,482.00
2024-04-07T08:33:41.787Z,484.00
2024-04-07T08:34:41.957Z,484.00
2024-04-07T08:35:41.984Z,484.00
2024-04-07T08:36:42.008Z,483.00
2024-04-07T08:37:42.094Z,482.00
2024-04-07T08:38:42.171Z,482.00
2024-04-07T08:39:42.251Z,481.00
2024-04-07T08:40:42.314Z,480.00
2024-04-07T08:41:42.414Z,480.00
2024-04-07T08:42:42.475Z,480.00
2024-04-07T08:43:42.574Z,479.00
2024-04-07T08:44:42.621Z,476.00
2024-04-07T08:45:42.710Z,478.00
2024-04-07T08:46:42.805Z,476.00
2024-04-07T08:47:42.871Z,475.00
2024-04-07T08:48:42.947Z,474.00
2024-04-07T08:49:43.010Z,478.00
2024-04-07T08:50:43.093Z,478.00
2024-04-07T08:51:43.183Z,480.00
2024-04-07T08:52:43.259Z,481.00
2024-04-07T08:53:43.341Z,481.00
2024-04-07T08:54:43.416Z,479.00
2024-04-07T08:55:43.493Z,480.00
2024-04-07T08:56:43.572Z,480.00
2024-04-07T08:57:43.653Z,480.00
2024-04-07T08:58:43.735Z,479.00
2024-04-07T08:59:43.818Z,479.00
2024-04-07T09:00:43.896Z,480.00
2024-04-07T09:01:43.968Z,480.00
2024-04-07T09:02:44.066Z,479.00
2024-04-07T09:03:44.130Z,478.00
2024-04-07T09:04:44.210Z,476.00
2024-04-07T09:05:44.295Z,476.00
2024-04-07T09:06:44.387Z,479.00
2024-04-07T09:07:44.468Z,481.00
2024-04-07T09:08:44.545Z,482.00
2024-04-07T09:09:44.618Z,485.00
2024-04-07T09:10:44.816Z,483.00
2024-04-07T09:11:44.776Z,481.00
2024-04-07T09:12:44.862Z,484.00
2024-04-07T09:13:44.956Z,482.00
2024-04-07T09:14:45.011Z,484.00
2024-04-07T09:15:45.082Z,486.00
2024-04-07T09:16:45.165Z,486.00
2024-04-07T09:17:45.257Z,486.00
2024-04-07T09:18:45.336Z,486.00
2024-04-07T09:19:45.407Z,486.00
2024-04-07T09:20:45.487Z,486.00
2024-04-07T09:21:45.561Z,486.00
2024-04-07T09:22:45.647Z,488.00
2024-04-07T09:23:45.721Z,489.00
2024-04-07T09:24:45.791Z,488.00
2024-04-07T09:25:49.161Z,488.00
2024-04-07T09:26:45.872Z,487.00
2024-04-07T09:27:45.880Z,487.00
2024-04-07T09:28:45.874Z,487.00
2024-04-07T09:29:45.887Z,487.00
2024-04-07T09:30:45.872Z,489.00
2024-04-07T09:31:45.878Z,489.00
2024-04-07T09:32:45.880Z,489.00
2024-04-07T09:33:45.899Z,489.00
2024-04-07T09:34:45.879Z,488.00
2024-04-07T09:35:45.877Z,488.00
2024-04-07T09:36:45.888Z,486.00
2024-04-07T09:37:45.943Z,487.00
2024-04-07T09:38:45.880Z,489.00
2024-04-07T09:39:45.885Z,490.00
2024-04-07T09:40:45.885Z,492.00
2024-04-07T09:41:45.886Z,493.00
2024-04-07T09:42:45.892Z,492.00
2024-04-07T09:43:45.893Z,490.00
2024-04-07T09:44:45.890Z,489.00
2024-04-07T09:45:45.935Z,488.00
2024-04-07T09:46:45.933Z,487.00
2024-04-07T09:47:45.939Z,488.00
2024-04-07T09:48:45.950Z,485.00
2024-04-07T09:49:45.959Z,485.00
2024-04-07T09:50:45.961Z,480.00
2024-04-07T09:51:45.945Z,480.00
2024-04-07T09:52:45.959Z,479.00
2024-04-07T09:53:46.055Z,480.00
2024-04-07T09:54:46.113Z,480.00
2024-04-07T09:55:46.187Z,479.00
2024-04-07T09:56:46.277Z,479.00
2024-04-07T09:57:46.357Z,479.00
2024-04-07T09:58:46.412Z,480.00
2024-04-07T09:59:46.495Z,479.00
2024-04-07T10:00:46.576Z,481.00
2024-04-07T10:01:46.777Z,481.00
2024-04-07T10:02:46.745Z,481.00
2024-04-07T10:03:46.838Z,481.00
2024-04-07T10:04:46.871Z,480.00
2024-04-07T10:05:46.969Z,479.00
2024-04-07T10:06:47.017Z,480.00
2024-04-07T10:07:47.087Z,481.00
2024-04-07T10:08:47.176Z,484.00
2024-04-07T10:09:47.246Z,483.00
2024-04-07T10:10:58.454Z,484.00
2024-04-07T10:11:47.321Z,483.00
2024-04-07T10:12:47.316Z,482.00
2024-04-07T10:13:47.327Z,482.00
2024-04-07T10:14:47.322Z,482.00
2024-04-07T10:15:47.318Z,483.00
2024-04-07T10:16:47.325Z,483.00
2024-04-07T10:17:47.361Z,482.00
2024-04-07T10:18:47.369Z,482.00
2024-04-07T10:19:47.359Z,482.00
2024-04-07T10:20:47.368Z,483.00
2024-04-07T10:21:47.383Z,483.00
2024-04-07T10:22:47.373Z,481.00
2024-04-07T10:23:49.089Z,481.00
2024-04-07T10:24:47.375Z,478.00
2024-04-07T10:25:47.372Z,477.00
2024-04-07T10:26:47.370Z,476.00
2024-04-07T10:27:47.380Z,476.00
2024-04-07T10:28:47.367Z,477.00
2024-04-07T10:29:47.373Z,475.00
2024-04-07T10:30:47.420Z,475.00
2024-04-07T10:31:47.412Z,475.00
2024-04-07T10:32:47.412Z,475.00
2024-04-07T10:33:47.422Z,475.00
2024-04-07T10:34:47.422Z,477.00
2024-04-07T10:35:47.416Z,476.00
2024-04-07T10:36:47.416Z,477.00
2024-04-07T10:37:47.440Z,475.00
2024-04-07T10:38:47.426Z,478.00
2024-04-07T10:39:47.464Z,478.00
2024-04-07T10:40:47.418Z,478.00
2024-04-07T10:41:47.426Z,480.00
2024-04-07T10:42:47.426Z,484.00
2024-04-07T10:43:47.435Z,483.00
2024-04-07T10:44:47.442Z,483.00
2024-04-07T10:45:47.433Z,483.00
2024-04-07T10:46:47.438Z,484.00
2024-04-07T10:47:47.437Z,485.00
2024-04-07T10:48:47.444Z,484.00
2024-04-07T10:49:47.443Z,484.00
2024-04-07T10:50:47.489Z,482.00
2024-04-07T10:51:47.497Z,479.00
2024-04-07T10:52:47.487Z,474.00
2024-04-07T10:53:47.511Z,471.00
2024-04-07T10:54:47.501Z,472.00
2024-04-07T10:55:47.493Z,471.00
2024-04-07T10:56:47.493Z,467.00
2024-04-07T10:57:47.507Z,467.00
2024-04-07T10:58:47.596Z,467.00
2024-04-07T10:59:47.666Z,471.00
2024-04-07T11:00:47.754Z,471.00
2024-04-07T11:01:47.835Z,472.00
2024-04-07T11:02:47.908Z,472.00
2024-04-07T11:03:48.003Z,470.00
2024-04-07T11:04:48.094Z,471.00
2024-04-07T11:05:48.165Z,469.00
2024-04-07T11:06:48.254Z,469.00
2024-04-07T11:07:48.335Z,470.00
2024-04-07T11:08:48.432Z,471.00
2024-04-07T11:09:48.520Z,474.00
2024-04-07T11:10:48.592Z,472.00
2024-04-07T11:11:48.662Z,471.00
2024-04-07T11:12:48.741Z,473.00
2024-04-07T11:13:48.830Z,472.00
2024-04-07T11:14:48.910Z,471.00
2024-04-07T11:15:48.978Z,470.00
2024-04-07T11:16:49.062Z,471.00
2024-04-07T11:17:49.210Z,471.00
2024-04-07T11:18:49.217Z,473.00
2024-04-07T11:19:49.310Z,476.00
2024-04-07T11:20:49.386Z,480.00
2024-04-07T11:21:49.475Z,478.00
2024-04-07T11:22:49.545Z,475.00
2024-04-07T11:23:49.636Z,472.00
2024-04-07T11:24:49.705Z,473.00
2024-04-07T11:25:49.800Z,471.00
2024-04-07T11:26:49.868Z,474.00
2024-04-07T11:27:49.941Z,475.00
2024-04-07T11:28:50.027Z,474.00
2024-04-07T11:29:50.115Z,473.00
2024-04-07T11:30:50.200Z,474.00
2024-04-07T11:32:00.442Z,474.00
2024-04-07T11:32:50.290Z,474.00
2024-04-07T11:33:50.283Z,477.00
2024-04-07T11:34:50.290Z,481.00
2024-04-07T11:35:50.290Z,481.00
2024-04-07T11:36:50.296Z,481.00
2024-04-07T11:37:50.309Z,478.00
2024-04-07T11:38:50.312Z,479.00
2024-04-07T11:39:56.906Z,476.00
2024-04-07T11:40:50.332Z,476.00
2024-04-07T11:41:50.331Z,477.00
2024-04-07T11:42:50.315Z,475.00
2024-04-07T11:43:50.316Z,475.00
2024-04-07T11:44:50.312Z,477.00
2024-04-07T11:45:50.317Z,477.00
2024-04-07T11:46:50.323Z,477.00
2024-04-07T11:47:50.363Z,477.00
2024-04-07T11:48:50.327Z,474.00
2024-04-07T11:49:50.337Z,473.00
2024-04-07T11:50:50.329Z,471.00
2024-04-07T11:51:50.328Z,470.00
2024-04-07T11:52:50.329Z,473.00
2024-04-07T11:53:50.356Z,474.00
2024-04-07T11:54:50.340Z,476.00
2024-04-07T11:55:50.377Z,476.00
2024-04-07T11:56:50.387Z,476.00
2024-04-07T11:57:50.391Z,475.00
2024-04-07T11:58:50.382Z,475.00
2024-04-07T11:59:50.383Z,476.00
2024-04-07T12:00:50.387Z,478.00
2024-04-07T12:01:50.389Z,479.00
2024-04-07T12:02:50.389Z,482.00
2024-04-07T12:03:50.397Z,482.00
2024-04-07T12:04:50.438Z,480.00
2024-04-07T12:05:50.448Z,478.00
2024-04-07T12:06:50.444Z,477.00
2024-04-07T12:07:50.447Z,475.00
2024-04-07T12:08:50.440Z,477.00
2024-04-07T12:09:50.439Z,478.00
2024-04-07T12:10:50.459Z,478.00
2024-04-07T12:11:50.491Z,478.00
2024-04-07T12:12:50.577Z,476.00
2024-04-07T12:13:50.693Z,474.00
2024-04-07T12:14:50.759Z,472.00
2024-04-07T12:15:50.855Z,472.00
2024-04-07T12:16:50.919Z,470.00
2024-04-07T12:17:51.006Z,470.00
2024-04-07T12:18:51.082Z,473.00
2024-04-07T12:19:51.157Z,471.00
2024-04-07T12:20:51.247Z,472.00
2024-04-07T12:21:51.319Z,474.00
2024-04-07T12:22:51.407Z,475.00
2024-04-07T12:23:51.507Z,476.00
2024-04-07T12:24:54.294Z,477.00
2024-04-07T12:25:51.587Z,478.00
2024-04-07T12:26:51.596Z,478.00
2024-04-07T12:27:51.599Z,480.00
2024-04-07T12:28:51.587Z,479.00